Terminal Aerodrome Forecast
Issued by NWS

Home | Current Version | Previous Version | Text Only | Print | Product List | Glossary On
Versions: 1 2 3 4 5 6 7 8 9 10 11 12 13 14 15 16 17
000
FTUS46 KSEW 011100
TAFBLI
TAF
KBLI 011120Z 0112/0212 15005KT P6SM OVC080
      TEMPO 0112/0116 3SM BR
     FM011600 16008KT 5SM -RA BR SCT020 OVC040
     FM011900 18010KT 5SM -RA BR OVC020
     FM020000 20008KT P6SM BKN020 OVC040
     FM021000 18006KT P6SM OVC015=

USA.gov is the U.S. government's official web portal to all federal, state and local government web resources and services.